createdAt,value
2018-10-17T00:01:37.307Z,35.80
2018-10-17T00:04:07.654Z,31.68
2018-10-17T00:06:35.085Z,32.08
2018-10-17T00:09:02.593Z,28.35
2018-10-17T00:11:30.093Z,33.25
2018-10-17T00:13:57.509Z,30.27
2018-10-17T00:16:24.942Z,32.63
2018-10-17T00:18:52.352Z,28.67
2018-10-17T00:21:19.692Z,29.07
2018-10-17T00:23:47.213Z,33.98
2018-10-17T00:26:14.586Z,27.70
2018-10-17T00:28:41.978Z,27.93
2018-10-17T00:31:09.501Z,29.15
2018-10-17T00:33:36.916Z,30.95
2018-10-17T00:36:04.386Z,32.78
2018-10-17T00:38:31.832Z,33.30
2018-10-17T00:40:59.260Z,28.02
2018-10-17T00:43:26.760Z,28.32
2018-10-17T00:45:54.174Z,28.17
2018-10-17T00:48:21.570Z,28.65
2018-10-17T00:50:48.948Z,30.35
2018-10-17T00:53:16.443Z,27.77
2018-10-17T00:55:43.755Z,27.27
2018-10-17T00:58:11.205Z,29.77
2018-10-17T01:00:38.664Z,30.72
2018-10-17T01:03:06.107Z,33.67
2018-10-17T01:05:34.173Z,31.17
2018-10-17T01:08:01.879Z,29.40
2018-10-17T01:10:29.253Z,33.42
2018-10-17T01:12:56.932Z,31.00
2018-10-17T01:15:24.269Z,39.27
2018-10-17T01:17:51.631Z,34.33
2018-10-17T01:20:19.033Z,33.00
2018-10-17T01:22:46.519Z,32.50
2018-10-17T01:25:14.061Z,29.65
2018-10-17T01:27:41.451Z,31.00
2018-10-17T01:30:08.885Z,26.30
2018-10-17T01:32:36.370Z,27.48
2018-10-17T01:35:03.942Z,29.82
2018-10-17T01:37:31.285Z,28.98
2018-10-17T01:39:58.725Z,30.80
2018-10-17T01:42:26.123Z,28.20
2018-10-17T01:44:53.561Z,27.95
2018-10-17T01:47:21.055Z,34.20
2018-10-17T01:49:48.490Z,34.10
2018-10-17T01:52:16.009Z,30.27
2018-10-17T01:54:43.401Z,28.60
2018-10-17T01:57:10.999Z,29.98
2018-10-17T01:59:38.385Z,28.25
2018-10-17T02:02:06.019Z,31.62
2018-10-17T02:04:33.515Z,28.85
2018-10-17T02:07:00.922Z,27.73
2018-10-17T02:09:28.341Z,34.05
2018-10-17T02:11:55.753Z,29.18
2018-10-17T02:14:23.169Z,31.20
2018-10-17T02:16:50.667Z,29.00
2018-10-17T02:19:18.129Z,29.27
2018-10-17T02:21:45.525Z,27.30
2018-10-17T02:24:12.903Z,29.18
2018-10-17T02:26:40.299Z,29.82
2018-10-17T02:29:07.714Z,28.38
2018-10-17T02:31:39.103Z,29.15
2018-10-17T02:34:06.502Z,30.95
2018-10-17T02:36:33.914Z,37.60
2018-10-17T02:39:01.440Z,35.13
2018-10-17T02:41:28.935Z,34.35
2018-10-17T02:43:56.314Z,32.05
2018-10-17T02:46:23.833Z,30.72
2018-10-17T02:48:51.297Z,32.00
2018-10-17T02:51:18.726Z,32.05
2018-10-17T02:53:46.214Z,46.42
2018-10-17T02:56:13.710Z,34.38
2018-10-17T02:58:41.101Z,35.92
2018-10-17T03:01:08.572Z,37.78
2018-10-17T03:03:36.004Z,40.38
2018-10-17T03:06:03.443Z,42.38
2018-10-17T03:08:30.967Z,46.08
2018-10-17T03:10:58.387Z,45.83
2018-10-17T03:13:26.274Z,47.93
2018-10-17T03:15:53.724Z,42.20
2018-10-17T03:18:21.200Z,43.87
2018-10-17T03:20:48.665Z,43.40
2018-10-17T03:23:16.177Z,46.70
2018-10-17T03:25:43.590Z,49.05
2018-10-17T03:28:11.074Z,49.95
2018-10-17T03:30:38.512Z,50.15
2018-10-17T03:33:06.088Z,44.10
2018-10-17T03:35:33.570Z,43.23
2018-10-17T03:38:01.029Z,42.05
2018-10-17T03:40:28.445Z,47.48
2018-10-17T03:42:55.948Z,48.60
2018-10-17T03:45:23.695Z,47.85
2018-10-17T03:47:51.121Z,43.83
2018-10-17T03:50:18.597Z,43.55
2018-10-17T03:52:46.000Z,44.83
2018-10-17T03:55:13.570Z,39.83
2018-10-17T03:57:41.254Z,41.85
2018-10-17T04:00:08.970Z,38.75
2018-10-17T04:02:36.845Z,37.53
2018-10-17T04:05:04.517Z,40.15
2018-10-17T04:07:31.881Z,39.50
2018-10-17T04:09:59.371Z,38.17
2018-10-17T04:12:26.773Z,36.00
2018-10-17T04:14:54.165Z,34.45
2018-10-17T04:17:21.538Z,33.08
2018-10-17T04:19:48.977Z,31.57
2018-10-17T04:22:16.402Z,28.83
2018-10-17T04:24:43.749Z,33.25
2018-10-17T04:27:11.143Z,31.12
2018-10-17T04:29:38.683Z,34.00
2018-10-17T04:32:06.176Z,35.50
2018-10-17T04:34:33.571Z,28.30
2018-10-17T04:37:01.049Z,39.13
2018-10-17T04:39:28.505Z,31.97
2018-10-17T04:41:55.977Z,34.05
2018-10-17T04:44:23.443Z,29.90
2018-10-17T04:46:50.991Z,28.25
2018-10-17T04:49:18.442Z,35.85
2018-10-17T04:51:45.847Z,33.45
2018-10-17T04:54:13.207Z,34.40
2018-10-17T04:56:40.699Z,30.30
2018-10-17T04:59:08.132Z,29.37
2018-10-17T05:01:35.579Z,37.60
2018-10-17T05:04:03.122Z,38.05
2018-10-17T05:06:30.571Z,35.68
2018-10-17T05:08:58.058Z,36.65
2018-10-17T05:11:25.441Z,34.65
2018-10-17T05:13:53.412Z,34.53
2018-10-17T05:16:20.960Z,37.65
2018-10-17T05:18:48.428Z,35.43
2018-10-17T05:21:15.875Z,34.03
2018-10-17T05:23:43.472Z,34.83
2018-10-17T05:26:10.912Z,37.03
2018-10-17T05:28:39.272Z,36.38
2018-10-17T05:31:06.819Z,34.92
2018-10-17T05:33:34.832Z,36.93
2018-10-17T05:36:02.216Z,37.48
2018-10-17T05:38:29.642Z,39.63
2018-10-17T05:40:57.091Z,38.05
2018-10-17T05:43:24.512Z,37.48
2018-10-17T05:45:52.014Z,34.55
2018-10-17T05:48:19.448Z,37.20
2018-10-17T05:50:46.942Z,33.83
2018-10-17T05:53:14.410Z,34.48
2018-10-17T05:55:41.816Z,35.08
2018-10-17T05:58:09.504Z,40.35
2018-10-17T06:00:37.369Z,37.85
2018-10-17T06:03:05.201Z,34.60
2018-10-17T06:05:32.724Z,33.75
2018-10-17T06:08:00.272Z,34.80
2018-10-17T06:10:27.852Z,34.18
2018-10-17T06:12:55.198Z,28.67
2018-10-17T06:15:22.643Z,30.77
2018-10-17T06:17:50.140Z,30.68
2018-10-17T06:20:17.697Z,28.80
2018-10-17T06:22:45.400Z,29.42
2018-10-17T06:25:12.992Z,30.23
2018-10-17T06:27:40.738Z,26.33
2018-10-17T06:30:08.855Z,27.07
2018-10-17T06:32:36.391Z,29.48
2018-10-17T06:35:04.068Z,27.50
2018-10-17T06:37:31.677Z,28.12
2018-10-17T06:39:59.201Z,28.23
2018-10-17T06:42:26.788Z,27.62
2018-10-17T06:44:54.352Z,27.42
2018-10-17T06:47:21.965Z,26.68
2018-10-17T06:49:49.371Z,28.65
2018-10-17T06:52:16.913Z,27.48
2018-10-17T06:54:44.479Z,27.95
2018-10-17T06:57:12.059Z,26.68
2018-10-17T06:59:39.754Z,27.52
2018-10-17T07:02:07.194Z,29.65
2018-10-17T07:04:34.715Z,26.80
2018-10-17T07:07:02.305Z,27.67
2018-10-17T07:09:29.732Z,25.55
2018-10-17T07:11:57.191Z,28.95
2018-10-17T07:14:24.741Z,25.97
2018-10-17T07:16:52.350Z,31.42
2018-10-17T07:19:19.929Z,26.82
2018-10-17T07:21:47.474Z,27.27
2018-10-17T07:24:14.976Z,46.23
2018-10-17T07:26:42.489Z,29.20
2018-10-17T07:29:09.974Z,28.30
2018-10-17T07:31:38.502Z,29.52
2018-10-17T07:34:06.090Z,29.67
2018-10-17T07:36:33.652Z,28.85
2018-10-17T07:39:01.140Z,28.12
2018-10-17T07:41:28.584Z,29.77
2018-10-17T07:43:56.077Z,28.65
2018-10-17T07:46:23.647Z,30.27
2018-10-17T07:48:51.082Z,29.93
2018-10-17T07:51:18.616Z,28.93
2018-10-17T07:53:46.090Z,29.90
2018-10-17T07:56:13.635Z,29.60
2018-10-17T07:58:41.150Z,26.37
2018-10-17T08:01:08.588Z,29.00
2018-10-17T08:03:36.103Z,26.43
2018-10-17T08:06:03.601Z,26.27
2018-10-17T08:08:31.171Z,26.13
2018-10-17T08:10:58.615Z,27.37
2018-10-17T08:13:26.219Z,29.47
2018-10-17T08:15:53.673Z,28.00
2018-10-17T08:18:21.237Z,27.40
2018-10-17T08:20:48.645Z,28.77
2018-10-17T08:23:16.115Z,27.23
2018-10-17T08:25:43.555Z,25.97
2018-10-17T08:28:11.105Z,24.73
2018-10-17T08:30:38.549Z,26.17
2018-10-17T08:33:06.211Z,26.20
2018-10-17T08:35:34.311Z,25.90
2018-10-17T08:38:01.748Z,24.20
2018-10-17T08:40:29.165Z,24.37
2018-10-17T08:42:56.612Z,24.03
2018-10-17T08:45:24.065Z,23.27
2018-10-17T08:47:51.564Z,22.20
2018-10-17T08:50:19.139Z,22.93
2018-10-17T08:52:46.380Z,22.40
2018-10-17T08:55:13.800Z,21.70
2018-10-17T08:57:41.243Z,21.77
2018-10-17T09:00:08.685Z,21.00
2018-10-17T09:02:36.109Z,19.23
2018-10-17T09:05:04.513Z,20.73
2018-10-17T09:07:31.983Z,19.03
2018-10-17T09:09:59.381Z,19.10
2018-10-17T09:12:26.857Z,20.87
2018-10-17T09:14:54.270Z,20.50
2018-10-17T09:17:21.651Z,18.47
2018-10-17T09:19:49.248Z,18.60
2018-10-17T09:22:16.974Z,17.40
2018-10-17T09:24:44.243Z,16.70
2018-10-17T09:27:11.602Z,18.93
2018-10-17T09:29:39.009Z,18.87
2018-10-17T09:32:06.529Z,17.07
2018-10-17T09:34:33.923Z,16.97
2018-10-17T09:37:01.346Z,19.03
2018-10-17T09:39:28.741Z,16.60
2018-10-17T09:41:56.175Z,15.90
2018-10-17T09:44:23.634Z,15.57
2018-10-17T09:46:51.043Z,17.73
2018-10-17T09:49:18.483Z,15.10
2018-10-17T09:51:45.952Z,15.47
2018-10-17T09:54:13.442Z,16.40
2018-10-17T09:56:40.776Z,15.07
2018-10-17T09:59:08.159Z,15.33
2018-10-17T10:01:40.847Z,16.77
2018-10-17T10:04:08.379Z,16.70
2018-10-17T10:06:35.802Z,14.67
2018-10-17T10:09:03.483Z,15.30
2018-10-17T10:11:30.913Z,14.23
2018-10-17T10:13:58.332Z,15.77
2018-10-17T10:16:25.857Z,15.20
2018-10-17T10:18:53.264Z,13.40
2018-10-17T10:21:20.712Z,14.80
2018-10-17T10:23:49.133Z,13.67
2018-10-17T10:26:16.609Z,13.83
2018-10-17T10:28:44.089Z,12.90
2018-10-17T10:31:12.418Z,14.77
2018-10-17T10:33:39.799Z,14.30
2018-10-17T10:36:07.188Z,12.60
2018-10-17T10:38:34.886Z,12.87
2018-10-17T10:41:02.541Z,13.70
2018-10-17T10:43:29.954Z,15.07
2018-10-17T10:45:57.350Z,12.70
2018-10-17T10:48:24.766Z,14.70
2018-10-17T10:50:52.236Z,14.83
2018-10-17T10:53:20.497Z,13.90
2018-10-17T10:55:48.000Z,17.20
2018-10-17T10:58:15.550Z,14.17
2018-10-17T11:00:43.032Z,14.47
2018-10-17T11:03:10.636Z,13.90
2018-10-17T11:05:38.591Z,13.47
2018-10-17T11:08:05.937Z,14.70
2018-10-17T11:10:33.396Z,14.80
2018-10-17T11:13:01.912Z,15.17
2018-10-17T11:15:29.539Z,14.67
2018-10-17T11:17:58.204Z,14.07
2018-10-17T11:20:25.793Z,14.23
2018-10-17T11:22:53.338Z,14.23
2018-10-17T11:25:21.520Z,16.00
2018-10-17T11:27:49.378Z,14.73
2018-10-17T11:30:16.974Z,16.37
2018-10-17T11:32:44.713Z,15.50
2018-10-17T11:35:13.298Z,15.80
2018-10-17T11:37:41.047Z,15.97
2018-10-17T11:40:08.744Z,16.43
2018-10-17T11:42:36.339Z,15.10
2018-10-17T11:45:04.283Z,15.07
2018-10-17T11:47:31.902Z,16.27
2018-10-17T11:49:59.824Z,15.23
2018-10-17T11:52:27.523Z,20.10
2018-10-17T11:54:55.289Z,22.87
2018-10-17T11:57:22.840Z,24.53
2018-10-17T11:59:50.589Z,27.20
2018-10-17T12:02:18.718Z,26.00
2018-10-17T12:04:47.192Z,27.00
2018-10-17T12:07:14.395Z,27.23
2018-10-17T12:09:42.039Z,25.67
2018-10-17T12:12:10.136Z,22.27
2018-10-17T12:14:37.891Z,24.63
2018-10-17T12:17:05.443Z,24.13
2018-10-17T12:19:32.955Z,22.83
2018-10-17T12:22:00.624Z,27.60
2018-10-17T12:24:28.113Z,28.43
2018-10-17T12:26:55.584Z,25.80
2018-10-17T12:29:23.004Z,23.43
2018-10-17T12:31:50.507Z,23.47
2018-10-17T12:34:17.932Z,22.30
2018-10-17T12:36:45.383Z,23.87
2018-10-17T12:39:13.660Z,21.47
2018-10-17T12:41:41.397Z,22.07
2018-10-17T12:44:08.856Z,21.90
2018-10-17T12:46:36.399Z,22.40
2018-10-17T12:49:03.893Z,26.10
2018-10-17T12:51:31.413Z,26.63
2018-10-17T12:53:58.859Z,24.60
2018-10-17T12:56:26.401Z,27.00
2018-10-17T12:58:53.840Z,27.03
2018-10-17T13:01:21.413Z,25.97
2018-10-17T13:03:49.073Z,28.03
2018-10-17T13:06:16.526Z,26.07
2018-10-17T13:08:44.053Z,29.37
2018-10-17T13:11:11.735Z,28.97
2018-10-17T13:13:39.131Z,26.90
2018-10-17T13:16:06.740Z,26.97
2018-10-17T13:18:34.314Z,26.47
2018-10-17T13:21:01.910Z,26.70
2018-10-17T13:23:29.399Z,25.73
2018-10-17T13:25:57.950Z,23.63
2018-10-17T13:28:25.660Z,22.53
2018-10-17T13:30:53.168Z,24.70
2018-10-17T13:33:20.585Z,21.90
2018-10-17T13:35:49.102Z,21.73
2018-10-17T13:38:16.740Z,20.73
2018-10-17T13:40:44.193Z,18.27
2018-10-17T13:43:12.235Z,19.50
2018-10-17T13:45:39.626Z,15.90
2018-10-17T13:48:07.043Z,17.63
2018-10-17T13:50:35.322Z,16.90
2018-10-17T13:53:02.727Z,15.73
2018-10-17T13:55:30.154Z,16.40
2018-10-17T13:57:57.773Z,16.97
2018-10-17T14:00:25.195Z,17.07
2018-10-17T14:02:52.630Z,16.73
2018-10-17T14:05:20.082Z,15.10
2018-10-17T14:07:47.456Z,14.80
2018-10-17T14:10:14.786Z,14.60
2018-10-17T14:12:42.090Z,14.00
2018-10-17T14:15:10.362Z,14.27
2018-10-17T14:17:37.796Z,13.63
2018-10-17T14:20:05.302Z,15.03
2018-10-17T14:22:32.752Z,13.83
2018-10-17T14:25:00.208Z,15.17
2018-10-17T14:27:27.876Z,13.73
2018-10-17T14:29:55.353Z,14.97
2018-10-17T14:32:23.348Z,15.17
2018-10-17T14:34:51.478Z,15.20
2018-10-17T14:37:18.886Z,14.27
2018-10-17T14:39:46.258Z,13.93
2018-10-17T14:42:13.848Z,14.73
2018-10-17T14:44:41.172Z,14.67
2018-10-17T14:47:08.522Z,15.47
2018-10-17T14:49:35.877Z,15.63
2018-10-17T14:52:03.580Z,15.67
2018-10-17T14:54:30.990Z,15.00
2018-10-17T14:56:58.583Z,16.90
2018-10-17T14:59:25.940Z,15.30
2018-10-17T15:01:53.629Z,16.17
2018-10-17T15:04:21.007Z,16.17
2018-10-17T15:06:48.465Z,16.30
2018-10-17T15:09:16.961Z,17.27
2018-10-17T15:11:44.441Z,14.33
2018-10-17T15:14:11.999Z,16.30
2018-10-17T15:16:39.458Z,17.30
2018-10-17T15:19:06.913Z,17.80
2018-10-17T15:21:34.245Z,23.33
2018-10-17T15:24:01.735Z,22.00
2018-10-17T15:26:29.205Z,21.73
2018-10-17T15:28:56.659Z,21.00
2018-10-17T15:31:24.216Z,21.00
2018-10-17T15:33:51.655Z,20.17
2018-10-17T15:36:19.049Z,18.57
2018-10-17T15:38:46.456Z,19.40
2018-10-17T15:41:13.924Z,18.23
2018-10-17T15:43:41.450Z,20.20
2018-10-17T15:46:08.872Z,17.90
2018-10-17T15:48:36.428Z,18.37
2018-10-17T15:51:03.923Z,18.67
2018-10-17T15:53:31.365Z,17.87
2018-10-17T15:55:58.992Z,18.70
2018-10-17T15:58:26.492Z,17.90
2018-10-17T16:00:54.000Z,18.37
2018-10-17T16:03:21.359Z,16.07
2018-10-17T16:05:48.796Z,16.20
2018-10-17T16:08:16.149Z,16.40
2018-10-17T16:10:45.106Z,16.77
2018-10-17T16:13:12.610Z,16.73
2018-10-17T16:15:40.976Z,17.13
2018-10-17T16:18:09.875Z,16.80
2018-10-17T16:20:37.312Z,17.67
2018-10-17T16:23:04.973Z,18.20
2018-10-17T16:25:32.617Z,18.27
2018-10-17T16:27:59.998Z,20.73
2018-10-17T16:30:27.761Z,20.27
2018-10-17T16:32:55.520Z,22.00
2018-10-17T16:35:22.966Z,21.83
2018-10-17T16:37:50.539Z,22.80
2018-10-17T16:40:18.006Z,23.23
2018-10-17T16:42:45.441Z,22.00
2018-10-17T16:45:13.441Z,22.90
2018-10-17T16:47:40.962Z,23.80
2018-10-17T16:50:09.000Z,24.00
2018-10-17T16:52:36.601Z,24.63
2018-10-17T16:55:04.667Z,23.83
2018-10-17T16:57:32.102Z,24.40
2018-10-17T16:59:59.546Z,23.50
2018-10-17T17:02:26.925Z,27.90
2018-10-17T17:04:54.438Z,27.47
2018-10-17T17:07:22.499Z,28.42
2018-10-17T17:09:49.813Z,31.23
2018-10-17T17:12:17.248Z,30.90
2018-10-17T17:14:45.609Z,29.52
2018-10-17T17:17:12.934Z,29.30
2018-10-17T17:19:40.361Z,25.30
2018-10-17T17:22:07.851Z,25.72
2018-10-17T17:24:36.029Z,26.10
2018-10-17T17:27:03.972Z,27.98
2018-10-17T17:29:31.485Z,27.82
2018-10-17T17:31:58.935Z,27.13
2018-10-17T17:34:26.732Z,29.48
2018-10-17T17:36:54.192Z,28.52
2018-10-17T17:39:21.649Z,27.27
2018-10-17T17:41:49.244Z,25.80
2018-10-17T17:44:16.767Z,24.85
2018-10-17T17:46:44.255Z,26.02
2018-10-17T17:49:11.965Z,25.70
2018-10-17T17:51:39.485Z,24.30
2018-10-17T17:54:07.170Z,24.43
2018-10-17T17:56:34.584Z,26.68
2018-10-17T17:59:02.832Z,25.70
2018-10-17T18:01:31.009Z,24.60
2018-10-17T18:03:58.524Z,25.65
2018-10-17T18:06:25.995Z,23.95
2018-10-17T18:08:54.173Z,27.87
2018-10-17T18:11:22.696Z,26.07
2018-10-17T18:13:50.908Z,26.02
2018-10-17T18:16:18.452Z,27.52
2018-10-17T18:18:46.047Z,28.10
2018-10-17T18:21:13.656Z,28.17
2018-10-17T18:23:41.425Z,25.37
2018-10-17T18:26:09.046Z,27.02
2018-10-17T18:28:37.248Z,26.07
2018-10-17T18:31:04.782Z,26.90
2018-10-17T18:33:32.512Z,28.27
2018-10-17T18:36:01.585Z,28.67
2018-10-17T18:38:29.404Z,27.65
2018-10-17T18:40:57.252Z,30.20
2018-10-17T18:43:24.976Z,29.50
2018-10-17T18:45:52.648Z,30.35
2018-10-17T18:48:20.444Z,33.40
2018-10-17T18:50:48.220Z,32.35
2018-10-17T18:53:15.931Z,34.27
2018-10-17T18:55:43.594Z,31.20
2018-10-17T18:58:11.223Z,32.85
2018-10-17T19:00:38.848Z,35.28
2018-10-17T19:03:07.613Z,36.23
2018-10-17T19:05:35.532Z,35.45
2018-10-17T19:08:04.423Z,33.80
2018-10-17T19:10:32.118Z,41.10
2018-10-17T19:12:59.710Z,43.80
2018-10-17T19:15:27.393Z,38.38
2018-10-17T19:17:59.402Z,35.63
2018-10-17T19:20:27.198Z,35.68
2018-10-17T19:22:56.182Z,36.13
2018-10-17T19:25:24.460Z,39.35
2018-10-17T19:27:53.451Z,35.13
2018-10-17T19:30:23.060Z,32.50
2018-10-17T19:32:54.299Z,38.73
2018-10-17T19:35:22.938Z,36.15
2018-10-17T19:37:54.035Z,34.73
2018-10-17T19:40:21.739Z,35.48
2018-10-17T19:42:49.563Z,36.88
2018-10-17T19:45:17.315Z,35.15
2018-10-17T19:47:44.868Z,33.70
2018-10-17T19:50:12.697Z,42.50
2018-10-17T19:52:40.335Z,34.00
2018-10-17T19:55:08.277Z,36.55
2018-10-17T19:57:36.047Z,39.55
2018-10-17T20:00:04.216Z,34.10
2018-10-17T20:02:32.456Z,32.73
2018-10-17T20:05:00.226Z,29.18
2018-10-17T20:07:28.318Z,30.48
2018-10-17T20:09:56.061Z,29.63
2018-10-17T20:12:23.882Z,29.85
2018-10-17T20:14:51.609Z,31.17
2018-10-17T20:17:20.887Z,28.17
2018-10-17T20:19:48.844Z,32.38
2018-10-17T20:22:16.752Z,32.28
2018-10-17T20:24:44.554Z,31.17
2018-10-17T20:27:12.472Z,30.25
2018-10-17T20:29:40.344Z,30.20
2018-10-17T20:32:09.542Z,28.85
2018-10-17T20:34:38.434Z,30.17
2018-10-17T20:37:06.102Z,34.75
2018-10-17T20:39:33.762Z,39.75
2018-10-17T20:42:02.085Z,36.25
2018-10-17T20:44:30.033Z,34.43
2018-10-17T20:46:57.904Z,35.88
2018-10-17T20:49:25.829Z,39.00
2018-10-17T20:51:53.752Z,38.17
2018-10-17T20:54:22.643Z,43.40
2018-10-17T20:56:50.500Z,37.98
2018-10-17T20:59:18.685Z,39.65
2018-10-17T21:01:46.511Z,38.40
2018-10-17T21:04:14.541Z,41.00
2018-10-17T21:06:42.364Z,47.30
2018-10-17T21:09:12.192Z,44.67
2018-10-17T21:11:40.068Z,44.05
2018-10-17T21:14:07.892Z,48.13
2018-10-17T21:16:35.746Z,51.13
2018-10-17T21:19:03.626Z,55.48
2018-10-17T21:21:32.371Z,55.33
2018-10-17T21:24:00.575Z,58.78
2018-10-17T21:26:28.408Z,53.95
2018-10-17T21:28:56.262Z,57.53
2018-10-17T21:31:24.134Z,56.25
2018-10-17T21:46:54.800Z,58.40
2018-10-17T21:49:22.504Z,64.53
2018-10-17T21:51:59.702Z,69.45
2018-10-17T21:54:31.656Z,65.67
2018-10-17T21:56:59.280Z,64.80
2018-10-17T21:59:27.038Z,65.92
2018-10-17T22:01:55.302Z,79.25
2018-10-17T22:04:23.024Z,67.65
2018-10-17T22:06:50.904Z,71.47
2018-10-17T22:09:18.620Z,73.90
2018-10-17T22:11:46.371Z,76.07
2018-10-17T22:14:14.200Z,63.83
2018-10-17T22:16:47.016Z,73.95
2018-10-17T22:19:14.786Z,67.95
2018-10-17T22:21:42.584Z,67.25
2018-10-17T22:24:10.282Z,81.45
2018-10-17T22:26:38.039Z,78.07
2018-10-17T22:29:05.721Z,77.82
2018-10-17T22:31:33.391Z,75.83
2018-10-17T22:34:00.986Z,86.37
2018-10-17T22:36:28.612Z,82.12
2018-10-17T22:38:56.910Z,82.30
2018-10-17T22:41:24.764Z,82.10
2018-10-17T22:43:52.204Z,77.72
2018-10-17T22:46:20.032Z,87.50
2018-10-17T22:48:47.740Z,90.83
2018-10-17T22:51:15.430Z,98.00
2018-10-17T22:53:43.978Z,84.52
2018-10-17T22:56:11.794Z,81.08
2018-10-17T22:58:39.377Z,90.42
2018-10-17T23:01:07.158Z,78.42
2018-10-17T23:03:34.871Z,86.78
2018-10-17T23:06:02.597Z,98.58
2018-10-17T23:08:30.417Z,92.80
2018-10-17T23:10:58.183Z,103.00
2018-10-17T23:13:25.781Z,102.92
2018-10-17T23:15:53.461Z,102.50
2018-10-17T23:18:21.136Z,92.12
2018-10-17T23:20:48.831Z,109.50
2018-10-17T23:23:16.432Z,110.20
2018-10-17T23:25:44.163Z,107.07
2018-10-17T23:28:11.881Z,104.80
2018-10-17T23:30:39.578Z,108.15
2018-10-17T23:33:07.067Z,102.02
2018-10-17T23:35:34.727Z,109.10
2018-10-17T23:38:02.309Z,98.27
2018-10-17T23:40:29.746Z,116.62
2018-10-17T23:42:57.252Z,105.05
2018-10-17T23:45:24.802Z,102.07
2018-10-17T23:47:52.391Z,112.88
2018-10-17T23:50:19.978Z,107.15
2018-10-17T23:52:47.595Z,112.97
2018-10-17T23:55:15.192Z,108.32
2018-10-17T23:57:42.751Z,112.92
